Time;durP1;ratioP1;P1;durP2;ratioP2;P2;SDS_P1;SDS_P2;PMS_P1;PMS_P2;Temp;Humidity;BMP_temperature;BMP_pressure;BME280_temperature;BME280_humidity;BME280_pressure;Samples;Min_cycle;Max_cycle;Signal;HPM_P1;HPM_P2
2022/02/28 00:01:00;;;;;;;0.97;0.97;;;2.70;99.90;;;;;;4982904;28;20669;-86
2022/02/28 00:03:26;;;;;;;0.70;0.70;;;2.70;99.90;;;;;;5035053;28;20219;-86
2022/02/28 00:05:52;;;;;;;1.70;1.60;;;2.70;99.90;;;;;;5015639;28;20257;-86
2022/02/28 00:08:17;;;;;;;0.57;0.57;;;2.70;99.90;;;;;;4999060;28;20573;-87
2022/02/28 00:10:43;;;;;;;0.83;0.83;;;2.70;99.90;;;;;;5006780;28;20305;-86
2022/02/28 00:13:10;;;;;;;1.33;1.20;;;2.70;99.90;;;;;;5027479;28;20221;-87
2022/02/28 00:15:36;;;;;;;1.07;1.00;;;2.70;99.90;;;;;;5005625;28;20211;-88
2022/02/28 00:18:02;;;;;;;1.83;0.83;;;2.70;99.90;;;;;;5009016;28;20215;-86
2022/02/28 00:20:27;;;;;;;1.07;1.07;;;2.70;99.90;;;;;;5016650;28;20284;-87
2022/02/28 00:22:53;;;;;;;0.60;0.60;;;2.70;99.90;;;;;;5001707;28;20210;-86
2022/02/28 00:25:19;;;;;;;2.93;1.47;;;2.70;99.90;;;;;;4982838;28;20693;-87
2022/02/28 00:27:45;;;;;;;0.93;0.93;;;2.60;99.90;;;;;;4999938;28;20222;-86
2022/02/28 00:30:12;;;;;;;0.90;0.90;;;2.60;99.90;;;;;;4997428;28;20264;-86
2022/02/28 00:32:38;;;;;;;1.20;1.17;;;2.60;99.90;;;;;;4998199;28;20284;-88
2022/02/28 00:35:08;;;;;;;0.70;0.70;;;2.50;99.90;;;;;;5017723;28;20191;-86
2022/02/28 00:37:34;;;;;;;0.87;0.87;;;2.50;99.90;;;;;;5016981;28;20297;-86
2022/02/28 00:40:00;;;;;;;1.33;1.23;;;2.40;99.90;;;;;;5013213;28;20766;-86
2022/02/28 00:42:26;;;;;;;0.63;0.57;;;2.40;99.90;;;;;;5018714;28;20276;-87
2022/02/28 00:44:53;;;;;;;0.40;0.40;;;2.40;99.90;;;;;;5025880;28;20246;-86
2022/02/28 00:47:19;;;;;;;1.67;1.13;;;2.40;99.90;;;;;;5012720;28;20317;-85
2022/02/28 00:49:44;;;;;;;0.50;0.50;;;2.50;99.90;;;;;;5029563;28;20226;-88
2022/02/28 00:52:10;;;;;;;1.77;1.67;;;2.50;99.90;;;;;;4992620;28;20585;-86
2022/02/28 00:54:36;;;;;;;0.50;0.50;;;2.50;99.90;;;;;;5005410;28;20227;-87
2022/02/28 00:57:02;;;;;;;1.97;1.37;;;2.60;99.90;;;;;;5017393;28;20217;-86
2022/02/28 00:59:28;;;;;;;0.50;0.50;;;2.60;99.90;;;;;;5034018;28;20277;-87
2022/02/28 01:01:54;;;;;;;1.93;1.07;;;2.60;99.90;;;;;;5003098;28;20228;-88
2022/02/28 01:04:20;;;;;;;0.47;0.47;;;2.60;99.90;;;;;;5034337;28;20699;-86
2022/02/28 01:06:46;;;;;;;1.27;1.27;;;2.60;99.90;;;;;;5025386;28;20225;-88
2022/02/28 01:09:12;;;;;;;0.40;0.40;;;2.60;99.90;;;;;;5036160;28;20223;-87
2022/02/28 01:11:38;;;;;;;0.40;0.40;;;2.60;99.90;;;;;;5031779;28;20218;-87
2022/02/28 01:14:04;;;;;;;1.00;1.00;;;2.60;99.90;;;;;;5026947;28;20395;-87
2022/02/28 01:16:30;;;;;;;0.87;0.87;;;2.60;99.90;;;;;;5034099;28;21010;-87
2022/02/28 01:18:56;;;;;;;0.80;0.80;;;2.60;99.90;;;;;;5009676;28;20222;-87
2022/02/28 01:21:22;;;;;;;1.17;1.17;;;2.50;99.90;;;;;;5032914;28;20225;-86
2022/02/28 01:23:48;;;;;;;0.70;0.70;;;2.50;99.90;;;;;;5033737;28;20214;-86
2022/02/28 01:26:14;;;;;;;0.83;0.83;;;2.30;99.90;;;;;;5027211;28;20287;-88
2022/02/28 01:28:40;;;;;;;1.47;1.37;;;2.20;99.90;;;;;;5034186;28;20680;-87
2022/02/28 01:31:06;;;;;;;1.30;1.17;;;2.20;99.90;;;;;;5032652;28;20216;-86
2022/02/28 01:33:33;;;;;;;0.80;0.80;;;2.20;99.90;;;;;;4993759;28;20214;-87
2022/02/28 01:35:59;;;;;;;1.53;1.37;;;2.10;99.90;;;;;;5024409;28;20967;-87
2022/02/28 01:38:25;;;;;;;1.07;1.07;;;2.10;99.90;;;;;;5042462;28;20243;-87
2022/02/28 01:40:51;;;;;;;1.67;1.60;;;2.10;99.90;;;;;;5024762;28;20703;-86
2022/02/28 01:43:17;;;;;;;1.53;1.37;;;2.10;99.90;;;;;;5016554;28;20272;-87
2022/02/28 01:45:43;;;;;;;0.50;0.50;;;2.10;99.90;;;;;;5015620;28;20973;-86
2022/02/28 01:48:09;;;;;;;0.53;0.53;;;2.10;99.90;;;;;;4999727;28;20223;-87
2022/02/28 01:50:34;;;;;;;0.73;0.73;;;2.10;99.90;;;;;;5014267;28;20202;-87
2022/02/28 01:53:02;;;;;;;1.10;1.10;;;2.10;99.90;;;;;;5013271;28;20218;-86
2022/02/28 01:55:28;;;;;;;0.97;0.90;;;2.10;99.90;;;;;;5031170;28;20249;-84
2022/02/28 01:57:54;;;;;;;0.77;0.70;;;2.00;99.90;;;;;;5009549;28;20311;-87
2022/02/28 02:00:27;;;;;;;5.10;0.83;;;1.90;99.90;;;;;;4991122;28;20250;-87
2022/02/28 02:02:53;;;;;;;2.17;2.07;;;1.90;99.90;;;;;;5019288;28;20218;-86
2022/02/28 02:05:19;;;;;;;1.00;0.97;;;1.90;99.90;;;;;;5002130;28;20270;-85
2022/02/28 02:07:47;;;;;;;1.07;1.07;;;1.90;99.90;;;;;;5008881;28;20243;-86
2022/02/28 02:10:13;;;;;;;0.77;0.77;;;1.90;99.90;;;;;;5019083;28;20246;-86
2022/02/28 02:12:39;;;;;;;0.77;0.77;;;1.80;99.90;;;;;;5017793;28;20223;-86
2022/02/28 02:15:07;;;;;;;1.70;1.60;;;1.80;99.90;;;;;;5017070;28;20246;-86
2022/02/28 02:17:35;;;;;;;6.63;1.43;;;1.80;99.90;;;;;;5010462;28;20357;-86
2022/02/28 02:20:16;;;;;;;0.70;0.57;;;1.80;99.90;;;;;;5017691;28;20198;-87
2022/02/28 02:23:00;;;;;;;1.30;1.10;;;1.70;99.90;;;;;;5026254;28;20218;-86
2022/02/28 02:25:26;;;;;;;0.93;0.93;;;1.70;99.90;;;;;;5021596;28;20254;-86
2022/02/28 02:27:52;;;;;;;0.70;0.70;;;1.60;99.90;;;;;;5016727;28;20246;-86
2022/02/28 02:30:20;;;;;;;0.60;0.60;;;1.60;99.90;;;;;;5016664;28;20314;-86
2022/02/28 02:32:46;;;;;;;1.83;1.13;;;1.50;99.90;;;;;;5003661;28;20277;-86
2022/02/28 02:35:12;;;;;;;2.10;1.73;;;1.50;99.90;;;;;;5020678;28;20203;-85
2022/02/28 02:37:38;;;;;;;2.80;1.57;;;1.50;99.90;;;;;;5036596;28;20314;-87
2022/02/28 02:40:05;;;;;;;0.93;0.93;;;1.40;99.90;;;;;;5007956;28;20215;-87
2022/02/28 02:42:31;;;;;;;1.57;1.47;;;1.30;99.90;;;;;;5018385;28;20223;-85
2022/02/28 02:44:57;;;;;;;0.73;0.73;;;1.30;99.90;;;;;;4990164;28;20625;-86
2022/02/28 02:47:22;;;;;;;0.90;0.70;;;1.30;99.90;;;;;;5005764;28;21201;-86
2022/02/28 02:49:48;;;;;;;1.47;1.40;;;1.30;99.90;;;;;;5006807;28;21061;-87
2022/02/28 02:52:14;;;;;;;3.50;1.20;;;1.20;99.90;;;;;;5018670;28;20218;-87
2022/02/28 02:54:40;;;;;;;0.73;0.70;;;1.30;99.90;;;;;;5036107;28;20711;-86
2022/02/28 02:57:05;;;;;;;0.60;0.60;;;1.30;99.90;;;;;;5012378;28;20282;-86
2022/02/28 02:59:31;;;;;;;2.77;1.90;;;1.30;99.90;;;;;;5037566;28;20182;-88
2022/02/28 03:01:57;;;;;;;0.60;0.60;;;1.20;99.90;;;;;;5038069;28;20774;-87
2022/02/28 03:04:23;;;;;;;0.97;0.97;;;1.20;99.90;;;;;;5002516;28;21260;-87
2022/02/28 03:06:48;;;;;;;1.03;0.93;;;1.10;99.90;;;;;;4995271;28;20225;-87
2022/02/28 03:09:15;;;;;;;2.07;1.23;;;1.10;99.90;;;;;;5022569;28;20288;-87
2022/02/28 03:11:42;;;;;;;1.57;1.50;;;1.10;99.90;;;;;;5004073;28;20195;-87
2022/02/28 03:14:09;;;;;;;0.70;0.70;;;1.00;99.90;;;;;;5038209;28;20202;-87
2022/02/28 03:16:36;;;;;;;1.73;1.63;;;1.10;99.90;;;;;;5035640;28;20222;-87
2022/02/28 03:19:02;;;;;;;0.60;0.60;;;1.10;99.90;;;;;;5037163;28;20218;-87
2022/02/28 03:21:28;;;;;;;1.13;1.13;;;1.00;99.90;;;;;;5008538;28;20296;-88
2022/02/28 03:23:54;;;;;;;2.00;1.50;;;1.00;99.90;;;;;;5002054;28;20237;-88
2022/02/28 03:26:19;;;;;;;1.13;1.13;;;1.00;99.90;;;;;;5001407;28;20196;-87
2022/02/28 03:28:45;;;;;;;3.63;2.17;;;0.90;99.90;;;;;;5000779;28;20253;-88
2022/02/28 03:31:11;;;;;;;1.50;1.40;;;1.00;99.90;;;;;;5035183;28;20223;-87
2022/02/28 03:33:37;;;;;;;1.17;1.17;;;0.90;99.90;;;;;;5018979;28;20228;-88
2022/02/28 03:36:03;;;;;;;0.70;0.70;;;0.90;99.90;;;;;;5037158;28;20631;-87
2022/02/28 03:38:29;;;;;;;0.93;0.93;;;1.00;99.90;;;;;;5038627;28;20187;-87
2022/02/28 03:40:54;;;;;;;0.67;0.67;;;0.90;99.90;;;;;;5034554;28;20226;-87
2022/02/28 03:43:20;;;;;;;1.33;1.33;;;0.90;99.90;;;;;;5019125;28;20242;-87
2022/02/28 03:45:46;;;;;;;1.00;1.00;;;1.00;99.90;;;;;;5006673;28;20708;-86
2022/02/28 03:48:13;;;;;;;2.83;1.23;;;0.90;99.90;;;;;;5016075;28;20266;-86
2022/02/28 03:50:40;;;;;;;1.13;1.13;;;1.00;99.90;;;;;;5016182;28;20354;-87
2022/02/28 03:53:06;;;;;;;0.60;0.60;;;0.90;99.90;;;;;;5008067;28;20184;-87
2022/02/28 03:55:32;;;;;;;2.87;2.17;;;1.00;99.90;;;;;;5019541;28;20222;-88
2022/02/28 03:57:58;;;;;;;0.70;0.70;;;0.90;99.90;;;;;;4998279;28;20229;-88
2022/02/28 04:00:23;;;;;;;1.37;1.00;;;0.90;99.90;;;;;;5007372;28;20681;-88
2022/02/28 04:02:49;;;;;;;2.87;1.27;;;1.00;99.90;;;;;;4984342;28;20202;-88
2022/02/28 04:05:16;;;;;;;1.90;1.80;;;0.90;99.90;;;;;;4983783;28;21052;-87
2022/02/28 04:07:43;;;;;;;3.00;2.10;;;0.90;99.90;;;;;;5013309;28;20223;-86
2022/02/28 04:10:09;;;;;;;0.30;0.30;;;0.90;99.90;;;;;;4997543;28;20677;-85
2022/02/28 04:12:36;;;;;;;5.60;2.10;;;0.90;99.90;;;;;;5013091;28;20254;-88
2022/02/28 04:15:02;;;;;;;0.97;0.93;;;0.90;99.90;;;;;;5007660;28;20219;-87
2022/02/28 04:17:28;;;;;;;1.07;0.97;;;0.90;99.90;;;;;;5014732;28;20217;-87
2022/02/28 04:19:54;;;;;;;1.17;1.17;;;0.90;99.90;;;;;;5016158;28;20219;-85
2022/02/28 04:22:22;;;;;;;2.23;1.87;;;0.90;99.90;;;;;;5015356;28;20219;-87
2022/02/28 04:24:48;;;;;;;1.33;1.33;;;0.90;99.90;;;;;;5013194;28;20250;-87
2022/02/28 04:27:14;;;;;;;2.87;1.17;;;0.90;99.90;;;;;;5021021;28;21303;-85
2022/02/28 04:29:40;;;;;;;3.47;1.67;;;0.90;99.90;;;;;;5009965;28;20282;-89
2022/02/28 04:32:06;;;;;;;0.57;0.57;;;0.80;99.90;;;;;;4997506;28;20282;-88
2022/02/28 04:34:32;;;;;;;0.30;0.30;;;0.90;99.90;;;;;;5014297;28;20276;-87
2022/02/28 04:36:59;;;;;;;1.00;1.00;;;0.90;99.90;;;;;;4997934;28;20227;-87
2022/02/28 04:39:25;;;;;;;1.40;1.30;;;0.90;99.90;;;;;;4985701;28;20234;-88
2022/02/28 04:41:50;;;;;;;1.80;1.10;;;0.90;99.90;;;;;;5015032;28;20238;-85
2022/02/28 04:44:16;;;;;;;1.03;1.00;;;0.80;99.90;;;;;;5013050;28;20242;-86
2022/02/28 04:46:42;;;;;;;0.87;0.87;;;0.80;99.90;;;;;;5034464;28;20238;-85
2022/02/28 04:49:09;;;;;;;0.60;0.60;;;0.80;99.90;;;;;;5019771;28;21021;-86
2022/02/28 04:51:35;;;;;;;1.33;1.27;;;0.70;99.90;;;;;;5024459;28;20304;-87
2022/02/28 04:54:00;;;;;;;0.50;0.50;;;0.70;99.90;;;;;;5031996;28;20317;-87
2022/02/28 04:56:26;;;;;;;1.37;1.37;;;0.70;99.90;;;;;;4983743;28;20245;-89
2022/02/28 04:58:52;;;;;;;0.60;0.60;;;0.70;99.90;;;;;;5001006;28;20273;-86
2022/02/28 05:01:18;;;;;;;2.30;1.30;;;0.80;99.90;;;;;;5002383;28;20220;-86
2022/02/28 05:03:43;;;;;;;0.70;0.67;;;0.70;99.90;;;;;;5036874;28;20733;-87
2022/02/28 05:06:09;;;;;;;0.63;0.63;;;0.80;99.90;;;;;;5034601;28;20817;-88
2022/02/28 05:08:35;;;;;;;0.97;0.90;;;0.80;99.90;;;;;;5020098;28;20194;-86
2022/02/28 05:11:01;;;;;;;0.90;0.90;;;0.70;99.90;;;;;;4998829;28;21155;-87
2022/02/28 05:13:26;;;;;;;0.97;0.97;;;0.70;99.90;;;;;;5031400;28;20233;-87
2022/02/28 05:15:52;;;;;;;0.70;0.70;;;0.80;99.90;;;;;;4990451;28;20832;-86
2022/02/28 05:18:18;;;;;;;15.37;1.60;;;0.70;99.90;;;;;;5029648;28;20277;-86
2022/02/28 05:20:44;;;;;;;5.33;2.57;;;0.70;99.90;;;;;;5022284;28;20197;-86
2022/02/28 05:23:10;;;;;;;0.97;0.97;;;0.70;99.90;;;;;;4991126;28;20198;-86
2022/02/28 05:25:35;;;;;;;0.57;0.57;;;0.80;99.90;;;;;;5024692;28;20241;-87
2022/02/28 05:28:01;;;;;;;2.00;1.57;;;0.70;99.90;;;;;;4991524;28;20218;-86
2022/02/28 05:30:27;;;;;;;0.73;0.73;;;0.70;99.90;;;;;;5001745;28;21177;-86
2022/02/28 05:32:53;;;;;;;0.93;0.93;;;0.70;99.90;;;;;;5026541;28;20284;-87
2022/02/28 05:35:18;;;;;;;1.37;0.97;;;0.70;99.90;;;;;;5025126;28;20202;-86
2022/02/28 05:37:44;;;;;;;0.90;0.90;;;0.60;99.90;;;;;;4991954;28;20356;-86
2022/02/28 05:40:12;;;;;;;1.43;1.43;;;0.70;99.90;;;;;;4995206;28;20234;-86
2022/02/28 05:42:38;;;;;;;0.77;0.77;;;0.70;99.90;;;;;;5031599;28;20223;-87
2022/02/28 05:45:05;;;;;;;0.60;0.60;;;0.60;99.90;;;;;;4998902;28;20257;-87
2022/02/28 05:47:31;;;;;;;0.83;0.83;;;0.60;99.90;;;;;;5015697;28;20746;-86
2022/02/28 05:49:57;;;;;;;2.70;2.37;;;0.60;99.90;;;;;;5013674;28;20215;-86
2022/02/28 05:52:23;;;;;;;1.60;1.60;;;0.60;99.90;;;;;;5013475;28;20288;-86
2022/02/28 05:54:49;;;;;;;0.50;0.50;;;0.60;99.90;;;;;;5005237;28;20218;-86
2022/02/28 05:57:15;;;;;;;1.87;1.33;;;0.60;99.90;;;;;;5014460;28;20817;-88
2022/02/28 05:59:41;;;;;;;0.97;0.97;;;0.70;99.90;;;;;;4997199;28;20234;-85
2022/02/28 06:02:06;;;;;;;1.67;1.57;;;0.70;99.90;;;;;;4981916;28;20179;-86
2022/02/28 06:04:32;;;;;;;3.50;1.70;;;0.70;99.90;;;;;;4972990;28;20246;-87
2022/02/28 06:06:58;;;;;;;1.80;1.47;;;0.60;99.90;;;;;;5025488;28;20611;-85
2022/02/28 06:09:24;;;;;;;0.80;0.80;;;0.60;99.90;;;;;;4998298;28;20226;-87
2022/02/28 06:11:50;;;;;;;4.67;0.90;;;0.60;99.90;;;;;;4994836;28;20187;-86
2022/02/28 06:14:16;;;;;;;1.70;1.60;;;0.50;99.90;;;;;;5005763;28;20665;-87
2022/02/28 06:16:42;;;;;;;2.07;1.97;;;0.50;99.90;;;;;;4981077;28;20215;-88
2022/02/28 06:19:08;;;;;;;0.83;0.83;;;0.50;99.90;;;;;;5006075;28;20219;-86
2022/02/28 06:21:34;;;;;;;1.70;1.27;;;0.40;99.90;;;;;;5008534;28;21083;-87
2022/02/28 06:24:00;;;;;;;1.33;1.33;;;0.50;99.90;;;;;;4982723;28;20593;-90
2022/02/28 06:26:26;;;;;;;1.83;1.70;;;0.50;99.90;;;;;;4973446;28;20196;-88
2022/02/28 06:28:52;;;;;;;0.50;0.50;;;0.40;99.90;;;;;;4987917;28;20226;-89
2022/02/28 06:31:17;;;;;;;0.67;0.67;;;0.50;99.90;;;;;;4978789;28;20218;-88
2022/02/28 06:33:43;;;;;;;2.10;1.30;;;0.50;99.90;;;;;;5020999;28;20223;-88
2022/02/28 06:36:09;;;;;;;1.87;1.73;;;0.70;99.90;;;;;;4980394;28;20218;-87
2022/02/28 06:38:35;;;;;;;1.60;1.50;;;0.90;99.90;;;;;;5015680;28;20187;-88
2022/02/28 06:41:01;;;;;;;1.40;1.33;;;1.30;99.90;;;;;;4978559;28;20540;-88
2022/02/28 06:43:27;;;;;;;1.47;1.17;;;1.60;99.90;;;;;;5018713;28;20222;-87
2022/02/28 06:45:54;;;;;;;1.20;1.17;;;1.80;99.90;;;;;;5019229;28;20246;-87
2022/02/28 06:48:20;;;;;;;1.77;1.67;;;2.10;99.90;;;;;;4992752;28;20211;-87
2022/02/28 06:50:47;;;;;;;1.37;1.27;;;2.40;99.90;;;;;;5017132;28;20195;-87
2022/02/28 06:53:18;;;;;;;4.87;1.00;;;2.70;99.90;;;;;;5017259;28;20245;-87
2022/02/28 06:55:45;;;;;;;1.40;1.40;;;2.90;99.90;;;;;;5034194;28;20548;-88
2022/02/28 06:58:11;;;;;;;2.23;2.13;;;3.20;99.90;;;;;;5020268;28;20669;-86
2022/02/28 07:00:37;;;;;;;1.17;1.17;;;3.10;99.90;;;;;;5024356;28;20272;-87
2022/02/28 07:03:03;;;;;;;2.67;1.33;;;3.20;99.90;;;;;;5012454;28;20706;-87
2022/02/28 07:05:29;;;;;;;2.03;1.70;;;2.90;99.90;;;;;;5020007;28;20681;-87
2022/02/28 07:07:55;;;;;;;3.73;1.87;;;2.80;99.90;;;;;;5002228;28;20254;-87
2022/02/28 07:10:22;;;;;;;1.40;1.30;;;2.80;99.90;;;;;;5009293;28;20309;-90
2022/02/28 07:12:49;;;;;;;2.60;1.70;;;3.00;99.90;;;;;;5003611;28;20214;-87
2022/02/28 07:15:15;;;;;;;2.37;1.90;;;3.40;99.90;;;;;;5016307;28;20223;-88
2022/02/28 07:17:41;;;;;;;1.60;1.60;;;4.00;99.90;;;;;;4986446;28;20647;-90
2022/02/28 07:20:08;;;;;;;1.23;1.23;;;3.80;99.90;;;;;;5001727;28;20182;-87
2022/02/28 07:22:34;;;;;;;5.40;2.63;;;3.80;99.90;;;;;;5017306;28;20285;-89
2022/02/28 07:25:00;;;;;;;2.23;1.73;;;3.80;99.90;;;;;;4993866;28;20227;-88
2022/02/28 07:27:25;;;;;;;2.97;1.13;;;3.60;99.90;;;;;;4974468;28;20719;-86
2022/02/28 07:29:51;;;;;;;15.80;2.43;;;4.00;99.90;;;;;;5023560;28;20195;-88
2022/02/28 07:32:17;;;;;;;4.00;1.60;;;3.90;99.90;;;;;;4984864;28;20194;-85
2022/02/28 07:34:43;;;;;;;2.10;1.97;;;3.90;99.90;;;;;;4987380;28;20217;-87
2022/02/28 07:37:08;;;;;;;2.80;2.30;;;4.30;99.90;;;;;;5010257;28;20219;-88
2022/02/28 07:39:34;;;;;;;1.40;1.30;;;4.30;99.90;;;;;;5010529;28;20618;-90
2022/02/28 07:42:00;;;;;;;2.53;2.33;;;4.10;99.90;;;;;;5012024;28;20214;-86
2022/02/28 07:44:27;;;;;;;3.17;2.57;;;3.90;99.90;;;;;;5000660;28;20223;-87
2022/02/28 07:46:54;;;;;;;3.03;2.83;;;4.20;99.90;;;;;;5017206;28;20470;-89
2022/02/28 07:49:20;;;;;;;2.40;2.03;;;4.60;99.90;;;;;;5018072;28;20269;-89
2022/02/28 07:51:45;;;;;;;1.47;1.37;;;5.10;99.90;;;;;;4999652;28;20222;-89
2022/02/28 07:54:11;;;;;;;2.03;1.87;;;5.40;99.90;;;;;;5014190;28;20226;-88
2022/02/28 07:56:38;;;;;;;2.53;1.20;;;5.90;99.90;;;;;;5014018;28;20743;-90
2022/02/28 07:59:04;;;;;;;1.97;1.80;;;6.60;99.90;;;;;;5014630;28;20198;-90
2022/02/28 08:01:30;;;;;;;1.63;1.53;;;6.60;99.90;;;;;;5018468;28;20211;-88
2022/02/28 08:03:56;;;;;;;3.37;3.07;;;7.50;99.90;;;;;;5006735;28;20238;-88
2022/02/28 08:06:22;;;;;;;1.97;1.87;;;7.30;99.90;;;;;;4985300;28;20612;-91
2022/02/28 08:08:48;;;;;;;2.43;1.80;;;8.00;99.90;;;;;;5014564;28;20321;-86
2022/02/28 08:11:14;;;;;;;1.73;1.60;;;8.40;99.90;;;;;;5014875;28;20315;-92
2022/02/28 08:13:40;;;;;;;2.70;1.63;;;8.20;99.90;;;;;;5015690;28;20229;-89
2022/02/28 08:16:06;;;;;;;2.50;2.20;;;8.50;99.90;;;;;;4997238;28;20223;-88
2022/02/28 08:18:31;;;;;;;2.47;2.00;;;8.50;99.90;;;;;;5014832;28;20428;-91
2022/02/28 08:20:57;;;;;;;3.10;2.20;;;8.50;99.90;;;;;;4987259;28;20243;-90
2022/02/28 08:23:23;;;;;;;3.23;2.60;;;8.70;99.90;;;;;;5036013;28;20217;-89
2022/02/28 08:25:49;;;;;;;2.77;2.33;;;8.80;99.90;;;;;;5034629;28;20329;-89
2022/02/28 08:28:15;;;;;;;2.20;2.00;;;8.10;99.90;;;;;;5025506;28;20325;-86
2022/02/28 08:30:45;;;;;;;2.80;2.60;;;8.10;99.90;;;;;;5018786;28;20296;-91
2022/02/28 08:33:14;;;;;;;4.30;3.03;;;8.40;99.90;;;;;;5023929;28;20276;-87
2022/02/28 08:35:40;;;;;;;5.40;3.13;;;8.30;99.90;;;;;;5013794;28;20723;-88
2022/02/28 08:38:06;;;;;;;2.87;2.60;;;8.50;99.90;;;;;;5016785;28;20609;-87
2022/02/28 08:40:32;;;;;;;2.90;2.27;;;9.40;99.90;;;;;;4991275;28;20272;-86
2022/02/28 08:42:58;;;;;;;4.27;1.70;;;8.90;99.90;;;;;;5020373;28;20778;-87
2022/02/28 08:45:24;;;;;;;2.73;2.50;;;8.90;99.90;;;;;;5012491;28;20239;-86
2022/02/28 08:47:50;;;;;;;5.23;3.30;;;8.30;99.90;;;;;;5014424;28;20265;-87
2022/02/28 08:50:16;;;;;;;4.00;3.13;;;8.40;99.90;;;;;;5012679;28;20621;-89
2022/02/28 08:52:46;;;;;;;7.87;2.87;;;9.10;99.90;;;;;;5007444;28;20218;-87
2022/02/28 08:55:12;;;;;;;5.83;2.90;;;9.10;99.90;;;;;;5031725;28;20227;-90
2022/02/28 08:57:38;;;;;;;5.53;2.60;;;8.30;99.90;;;;;;5036881;28;20242;-89
2022/02/28 09:00:09;;;;;;;6.23;2.37;;;8.10;99.90;;;;;;5013591;28;20284;-88
2022/02/28 09:02:37;;;;;;;4.70;3.17;;;7.60;99.90;;;;;;5013183;28;20206;-89
2022/02/28 09:05:03;;;;;;;2.43;2.23;;;7.00;99.90;;;;;;5012738;28;20219;-87
2022/02/28 09:07:28;;;;;;;3.63;2.73;;;6.90;99.90;;;;;;5015268;28;20226;-87
2022/02/28 09:09:55;;;;;;;6.47;3.10;;;6.70;99.90;;;;;;5016360;28;20230;-88
2022/02/28 09:12:21;;;;;;;2.73;2.13;;;6.80;99.90;;;;;;5013763;28;20225;-88
2022/02/28 09:14:46;;;;;;;1.40;1.30;;;6.60;99.90;;;;;;5033219;28;20268;-90
2022/02/28 09:17:12;;;;;;;3.70;2.00;;;6.80;99.90;;;;;;5031302;28;20277;-90
2022/02/28 09:19:38;;;;;;;2.40;1.57;;;6.80;99.90;;;;;;4993810;28;20243;-89
2022/02/28 09:22:07;;;;;;;2.90;2.70;;;6.70;99.90;;;;;;4995649;28;20714;-88
2022/02/28 09:24:36;;;;;;;4.97;3.50;;;6.50;99.90;;;;;;5018939;28;20695;-89
2022/02/28 09:27:03;;;;;;;2.57;2.37;;;6.60;99.90;;;;;;5032877;28;20225;-91
2022/02/28 09:29:30;;;;;;;2.17;2.00;;;6.50;99.90;;;;;;5032230;28;20289;-90
2022/02/28 09:31:57;;;;;;;3.33;2.53;;;6.50;99.90;;;;;;4996189;28;20265;-90
2022/02/28 09:34:23;;;;;;;1.63;1.50;;;6.60;99.90;;;;;;5005614;28;20305;-88
2022/02/28 09:36:51;;;;;;;2.50;2.30;;;6.60;99.90;;;;;;5013340;28;20231;-87
2022/02/28 09:39:17;;;;;;;3.03;1.83;;;6.70;99.90;;;;;;5020182;28;20565;-85
2022/02/28 09:41:44;;;;;;;2.70;2.30;;;6.70;99.90;;;;;;5015546;28;20281;-88
2022/02/28 09:44:13;;;;;;;2.67;2.47;;;6.80;99.90;;;;;;4982004;28;20225;-90
2022/02/28 09:46:43;;;;;;;2.20;2.10;;;6.80;99.90;;;;;;5021446;28;20261;-92
2022/02/28 09:49:09;;;;;;;2.30;2.13;;;6.90;99.90;;;;;;5033108;28;20230;-90
2022/02/28 09:51:39;;;;;;;2.33;2.13;;;6.90;99.90;;;;;;5013586;28;20299;-90
2022/02/28 09:54:05;;;;;;;6.40;3.27;;;6.90;99.90;;;;;;5015225;28;20223;-87
2022/02/28 09:56:31;;;;;;;4.73;2.47;;;6.90;99.90;;;;;;5014239;28;20187;-92
2022/02/28 09:58:58;;;;;;;2.90;1.80;;;7.00;99.90;;;;;;5000537;28;20289;-91
2022/02/28 10:01:24;;;;;;;3.47;1.90;;;7.10;99.90;;;;;;4993022;28;20246;-91
2022/02/28 10:03:50;;;;;;;3.17;2.67;;;7.10;99.90;;;;;;5027033;28;20225;-92
2022/02/28 10:06:16;;;;;;;2.57;1.90;;;7.20;99.90;;;;;;5016409;28;20295;-86
2022/02/28 10:08:47;;;;;;;2.30;2.10;;;7.20;99.90;;;;;;5014447;28;20191;-90
2022/02/28 10:11:24;;;;;;;4.23;3.67;;;7.30;99.90;;;;;;5014306;28;20213;-90
2022/02/28 10:13:52;;;;;;;1.87;1.77;;;7.30;99.90;;;;;;5013073;28;20215;-92
2022/02/28 10:16:33;;;;;;;3.23;2.20;;;7.30;99.90;;;;;;5016961;28;20251;-88
2022/02/28 10:19:00;;;;;;;4.00;2.27;;;7.40;99.90;;;;;;5034740;28;20318;-92
2022/02/28 10:21:46;;;;;;;4.40;2.00;;;7.50;99.90;;;;;;5009030;28;20223;-88
2022/02/28 10:24:20;;;;;;;1.80;1.70;;;7.40;99.90;;;;;;5016926;28;20238;-89
2022/02/28 10:26:54;;;;;;;1.27;1.27;;;7.40;99.90;;;;;;5019138;28;20186;-92
2022/02/28 10:29:20;;;;;;;7.37;2.70;;;7.50;99.90;;;;;;5017204;28;20221;-86
2022/02/28 10:31:47;;;;;;;5.20;1.87;;;7.60;99.90;;;;;;5023236;28;20218;-93
2022/02/28 10:34:16;;;;;;;3.60;2.53;;;7.60;99.90;;;;;;5016374;28;20223;-86
2022/02/28 10:37:03;;;;;;;6.33;2.40;;;7.60;99.90;;;;;;5018918;28;20761;-89
2022/02/28 10:39:38;;;;;;;2.77;1.90;;;7.80;99.90;;;;;;5017323;28;20245;-91
2022/02/28 10:42:15;;;;;;;1.60;1.50;;;8.10;99.90;;;;;;5015239;28;20217;-93
2022/02/28 10:44:41;;;;;;;2.40;2.20;;;8.50;99.90;;;;;;5018343;28;20223;-89
2022/02/28 10:47:09;;;;;;;4.30;3.13;;;8.90;99.90;;;;;;5019584;28;20254;-90
2022/02/28 10:49:36;;;;;;;3.63;2.57;;;9.20;99.90;;;;;;5020035;28;20225;-89
2022/02/28 10:52:07;;;;;;;3.70;2.63;;;9.60;99.90;;;;;;5012459;28;20692;-92
2022/02/28 10:54:38;;;;;;;3.00;2.63;;;10.20;99.90;;;;;;5018056;28;20226;-91
2022/02/28 10:57:05;;;;;;;2.63;2.43;;;10.10;99.90;;;;;;5022243;28;21048;-93
2022/02/28 10:59:42;;;;;;;5.03;2.53;;;10.00;99.90;;;;;;5037544;28;20188;-92
2022/02/28 11:02:09;;;;;;;3.90;2.50;;;10.10;99.90;;;;;;5029359;28;20218;-90
2022/02/28 11:04:41;;;;;;;3.70;2.73;;;10.00;99.90;;;;;;5018236;28;20231;-92
2022/02/28 11:07:10;;;;;;;6.47;2.57;;;9.70;99.90;;;;;;5024446;28;20247;-89
2022/02/28 11:09:42;;;;;;;2.50;2.30;;;10.10;99.90;;;;;;5009558;28;20742;-90
2022/02/28 11:12:28;;;;;;;3.20;2.77;;;10.30;99.90;;;;;;5033407;28;20214;-87
2022/02/28 11:15:09;;;;;;;2.37;2.07;;;10.30;99.90;;;;;;5018282;28;20253;-90
2022/02/28 11:17:39;;;;;;;3.90;2.33;;;10.20;99.90;;;;;;5019931;28;20171;-89
2022/02/28 11:20:11;;;;;;;5.93;3.20;;;10.10;99.90;;;;;;5017858;28;20241;-90
2022/02/28 11:22:38;;;;;;;5.40;2.47;;;10.20;99.90;;;;;;5030693;28;20219;-91
2022/02/28 11:25:10;;;;;;;5.20;1.63;;;10.00;99.90;;;;;;5010541;28;20226;-90
2022/02/28 11:27:40;;;;;;;3.67;2.17;;;9.80;99.90;;;;;;5032761;28;20309;-90
2022/02/28 11:30:10;;;;;;;2.40;2.20;;;10.00;99.90;;;;;;5015770;28;20217;-89
2022/02/28 11:32:37;;;;;;;3.20;2.17;;;9.80;99.90;;;;;;5035334;28;20201;-90
2022/02/28 11:35:40;;;;;;;2.07;1.73;;;9.90;99.90;;;;;;5009057;28;20194;-92
2022/02/28 11:38:27;;;;;;;2.27;1.23;;;9.60;99.90;;;;;;5006912;28;20211;-90
2022/02/28 11:41:03;;;;;;;6.20;3.27;;;9.70;99.90;;;;;;5000471;28;20264;-92
2022/02/28 11:43:36;;;;;;;2.47;2.00;;;10.10;99.90;;;;;;5033740;28;20226;-90
2022/02/28 11:46:08;;;;;;;2.10;1.83;;;9.80;99.90;;;;;;5025760;28;20226;-92
2022/02/28 11:48:45;;;;;;;4.17;2.13;;;9.90;99.90;;;;;;5040312;28;20256;-90
2022/02/28 11:51:29;;;;;;;4.10;2.90;;;10.40;99.90;;;;;;5039242;28;20217;-92
2022/02/28 11:53:57;;;;;;;3.07;2.23;;;10.50;99.90;;;;;;5031673;28;20232;-91
2022/02/28 11:56:23;;;;;;;2.63;2.43;;;10.70;99.90;;;;;;5031677;28;20190;-88
2022/02/28 11:59:05;;;;;;;3.67;3.10;;;10.50;99.90;;;;;;5023610;28;20622;-91
2022/02/28 12:01:36;;;;;;;2.83;2.53;;;10.50;99.90;;;;;;5021258;28;20222;-88
2022/02/28 12:04:15;;;;;;;7.67;2.33;;;10.40;99.90;;;;;;5018900;28;20537;-88
2022/02/28 12:07:01;;;;;;;4.37;2.83;;;10.40;99.90;;;;;;5021798;28;20229;-88
2022/02/28 12:09:33;;;;;;;3.90;2.90;;;10.40;99.90;;;;;;5020492;28;20229;-88
2022/02/28 12:12:20;;;;;;;4.03;2.83;;;10.80;99.90;;;;;;5035585;28;20659;-92
2022/02/28 12:14:55;;;;;;;3.13;2.07;;;10.40;99.90;;;;;;5017642;28;20204;-88
2022/02/28 12:17:31;;;;;;;2.90;2.07;;;10.10;99.90;;;;;;5017883;28;20201;-89
2022/02/28 12:20:15;;;;;;;2.03;1.70;;;9.90;99.90;;;;;;5032594;28;20286;-89
2022/02/28 12:25:52;;;;;;;2.90;1.93;;;9.60;99.90;;;;;;5021540;28;20237;-90
2022/02/28 12:28:28;;;;;;;4.07;2.57;;;9.50;99.90;;;;;;5037065;28;20287;-87
2022/02/28 12:31:00;;;;;;;2.13;1.53;;;9.80;99.90;;;;;;5034927;28;20226;-89
2022/02/28 12:33:45;;;;;;;3.23;2.30;;;9.80;99.90;;;;;;5018750;28;20292;-89
2022/02/28 12:36:21;;;;;;;0.90;0.90;;;9.80;99.90;;;;;;5016543;28;20218;-88
2022/02/28 12:38:53;;;;;;;3.50;2.23;;;9.70;99.90;;;;;;5017597;28;20183;-90
2022/02/28 12:41:31;;;;;;;1.27;1.17;;;9.60;99.90;;;;;;5021138;28;20214;-90
2022/02/28 12:44:00;;;;;;;1.30;1.20;;;9.60;99.90;;;;;;5017725;28;20217;-89
2022/02/28 12:46:38;;;;;;;1.77;1.27;;;9.40;99.90;;;;;;5013308;28;20354;-88
2022/02/28 12:49:06;;;;;;;1.17;1.07;;;9.60;99.90;;;;;;5015228;28;20222;-87
2022/02/28 12:51:34;;;;;;;1.43;1.33;;;9.40;99.90;;;;;;5007268;28;20227;-91
2022/02/28 12:54:01;;;;;;;2.37;1.90;;;9.40;99.90;;;;;;4977570;28;20259;-89
2022/02/28 12:56:27;;;;;;;2.83;2.63;;;9.60;99.90;;;;;;4987529;28;20223;-87
2022/02/28 12:58:54;;;;;;;2.00;1.43;;;9.70;99.90;;;;;;5020783;28;20334;-86
2022/02/28 13:01:27;;;;;;;1.80;1.07;;;9.70;99.90;;;;;;5015237;28;20237;-84